Time;durP1;ratioP1;P1;durP2;ratioP2;P2;SDS_P1;SDS_P2;PMS_P1;PMS_P2;Temp;Humidity;BMP_temperature;BMP_pressure;BME280_temperature;BME280_humidity;BME280_pressure;Samples;Min_cycle;Max_cycle;Signal;HPM_P1;HPM_P2
2022/01/31 00:00:36;;;;;;;24.30;12.40;;;-0.60;99.90;;;;;;5014181;28;20421;-58
2022/01/31 00:03:02;;;;;;;23.57;11.93;;;-0.60;99.90;;;;;;5009025;28;20953;-58
2022/01/31 00:05:28;;;;;;;25.73;11.80;;;-0.60;99.90;;;;;;5009437;28;20669;-59
2022/01/31 00:07:54;;;;;;;30.93;11.93;;;-0.60;99.90;;;;;;5009130;28;20206;-56
2022/01/31 00:10:27;;;;;;;23.73;11.27;;;-0.60;99.90;;;;;;5008794;28;20997;-58
2022/01/31 00:13:01;;;;;;;23.33;11.27;;;-0.50;99.90;;;;;;5023176;28;20169;-58
2022/01/31 00:15:28;;;;;;;21.10;12.13;;;-0.50;99.90;;;;;;5026664;28;20460;-56
2022/01/31 00:17:54;;;;;;;28.77;12.40;;;-0.50;99.90;;;;;;5028313;28;20492;-57
2022/01/31 00:20:19;;;;;;;17.03;11.20;;;-0.50;99.90;;;;;;5025860;28;20417;-59
2022/01/31 00:22:45;;;;;;;25.00;14.30;;;-0.50;99.90;;;;;;5009592;28;20174;-58
2022/01/31 00:25:11;;;;;;;25.07;13.47;;;-0.50;99.90;;;;;;5004716;28;20531;-57
2022/01/31 00:27:37;;;;;;;24.47;12.00;;;-0.50;99.90;;;;;;5006122;28;20237;-55
2022/01/31 00:30:04;;;;;;;28.00;12.73;;;-0.50;99.90;;;;;;5004851;28;20456;-58
2022/01/31 00:32:30;;;;;;;25.17;12.93;;;-0.50;99.90;;;;;;5005451;28;20179;-58
2022/01/31 00:34:59;;;;;;;26.37;12.73;;;-0.50;99.90;;;;;;5006278;28;20436;-57
2022/01/31 00:37:25;;;;;;;31.03;13.67;;;-0.40;99.90;;;;;;5003685;28;20201;-56
2022/01/31 00:39:51;;;;;;;27.03;13.53;;;-0.40;99.90;;;;;;5024151;28;20413;-58
2022/01/31 00:42:19;;;;;;;21.30;12.37;;;-0.40;99.90;;;;;;5013675;28;20750;-57
2022/01/31 00:44:54;;;;;;;33.33;13.80;;;-0.40;99.90;;;;;;5005388;28;20460;-56
2022/01/31 00:47:25;;;;;;;22.73;13.33;;;-0.30;99.90;;;;;;5006221;28;20424;-57
2022/01/31 00:50:13;;;;;;;28.90;14.90;;;-0.30;99.90;;;;;;5008000;28;20523;-58
2022/01/31 00:52:40;;;;;;;24.70;13.30;;;-0.30;99.90;;;;;;5004721;28;20437;-58
2022/01/31 00:55:08;;;;;;;28.23;14.57;;;-0.30;99.90;;;;;;5002937;28;20421;-57
2022/01/31 00:57:33;;;;;;;32.60;13.60;;;-0.30;99.90;;;;;;5004577;28;20942;-59
2022/01/31 00:59:59;;;;;;;23.50;13.33;;;-0.30;99.90;;;;;;5003901;28;20425;-56
2022/01/31 01:02:26;;;;;;;20.90;12.20;;;-0.30;99.90;;;;;;5006815;28;20179;-58
2022/01/31 01:04:53;;;;;;;25.90;13.03;;;-0.20;99.90;;;;;;5005297;28;20178;-58
2022/01/31 01:07:22;;;;;;;26.33;12.50;;;-0.20;99.90;;;;;;5006245;28;20980;-57
2022/01/31 01:09:48;;;;;;;23.53;11.80;;;-0.20;99.90;;;;;;5003192;28;20499;-57
2022/01/31 01:12:16;;;;;;;23.73;12.53;;;-0.10;99.90;;;;;;5006714;28;20424;-57
2022/01/31 01:14:42;;;;;;;25.03;13.10;;;-0.20;99.90;;;;;;5005118;28;20491;-55
2022/01/31 01:17:08;;;;;;;22.67;12.27;;;-0.10;99.90;;;;;;5006039;28;20531;-55
2022/01/31 01:19:34;;;;;;;20.93;12.80;;;-0.10;99.90;;;;;;5005524;28;20487;-53
2022/01/31 01:22:00;;;;;;;26.43;12.63;;;-0.10;99.90;;;;;;5006509;28;20547;-58
2022/01/31 01:24:26;;;;;;;26.60;12.80;;;-0.20;99.90;;;;;;5006347;28;20425;-54
2022/01/31 01:26:51;;;;;;;28.40;13.33;;;-0.20;99.90;;;;;;5018716;28;21341;-58
2022/01/31 01:29:19;;;;;;;26.03;13.37;;;-0.30;99.90;;;;;;5005010;28;20256;-57
2022/01/31 01:31:45;;;;;;;23.60;13.40;;;-0.30;99.90;;;;;;5006505;28;20174;-55
2022/01/31 01:34:11;;;;;;;26.10;13.37;;;-0.30;99.90;;;;;;5004550;28;20910;-55
2022/01/31 01:36:38;;;;;;;27.47;13.07;;;-0.40;99.90;;;;;;5005943;28;20516;-55
2022/01/31 01:39:05;;;;;;;27.93;14.33;;;-0.40;99.90;;;;;;5005264;28;20191;-57
2022/01/31 01:41:30;;;;;;;23.50;13.20;;;-0.40;99.90;;;;;;5004903;28;20728;-56
2022/01/31 01:43:57;;;;;;;31.83;13.67;;;-0.40;99.90;;;;;;5016619;28;20557;-58
2022/01/31 01:46:23;;;;;;;28.53;11.47;;;-0.40;99.90;;;;;;5006324;28;20476;-56
2022/01/31 01:48:49;;;;;;;20.53;12.03;;;-0.40;99.90;;;;;;5011768;28;20520;-58
2022/01/31 01:51:15;;;;;;;28.63;12.80;;;-0.40;99.90;;;;;;5006683;28;20325;-58
2022/01/31 01:53:40;;;;;;;32.40;12.40;;;-0.40;99.90;;;;;;5008499;28;20433;-57
2022/01/31 01:56:07;;;;;;;25.20;11.40;;;-0.40;99.90;;;;;;5008011;28;20475;-57
2022/01/31 01:58:41;;;;;;;27.23;11.53;;;-0.40;99.90;;;;;;5025636;28;20680;-58
2022/01/31 02:01:08;;;;;;;25.17;12.43;;;-0.40;99.90;;;;;;5021196;28;20419;-57
2022/01/31 02:03:37;;;;;;;22.97;10.43;;;-0.40;99.90;;;;;;5007177;28;20429;-58
2022/01/31 02:06:03;;;;;;;14.33;7.67;;;-0.30;99.90;;;;;;5009262;28;20417;-58
2022/01/31 02:08:39;;;;;;;11.90;6.70;;;-0.30;99.90;;;;;;5008502;28;20463;-57
2022/01/31 02:11:06;;;;;;;14.40;6.13;;;-0.20;99.90;;;;;;5015662;28;20608;-58
2022/01/31 02:13:31;;;;;;;18.33;5.90;;;-0.10;99.90;;;;;;5015782;28;20709;-57
2022/01/31 02:15:57;;;;;;;15.47;6.70;;;0.00;99.90;;;;;;5010692;28;20477;-54
2022/01/31 02:18:26;;;;;;;7.70;5.90;;;0.10;99.90;;;;;;5030163;22;20368;-61
2022/01/31 02:20:52;;;;;;;13.50;6.97;;;0.20;99.90;;;;;;5023749;28;20178;-60
2022/01/31 02:23:18;;;;;;;9.57;6.10;;;0.20;99.90;;;;;;5023287;28;20436;-61
2022/01/31 02:26:05;;;;;;;9.80;6.30;;;0.20;99.90;;;;;;5022295;28;20170;-60
2022/01/31 02:28:33;;;;;;;13.00;6.53;;;0.30;99.90;;;;;;5014910;28;20208;-61
2022/01/31 02:31:00;;;;;;;15.33;6.47;;;0.20;99.90;;;;;;5015077;28;20429;-60
2022/01/31 02:33:26;;;;;;;11.33;6.37;;;0.30;99.90;;;;;;5016032;28;21040;-61
2022/01/31 02:35:57;;;;;;;9.60;6.23;;;0.30;99.90;;;;;;5011635;28;20425;-61
2022/01/31 02:38:24;;;;;;;9.43;5.80;;;0.30;99.90;;;;;;5013163;28;20470;-60
2022/01/31 02:40:50;;;;;;;13.63;7.10;;;0.30;99.90;;;;;;5011668;28;20429;-60
2022/01/31 02:43:23;;;;;;;11.63;5.70;;;0.30;99.90;;;;;;5013392;28;20421;-61
2022/01/31 02:45:49;;;;;;;16.63;6.40;;;0.30;99.90;;;;;;5012618;28;20453;-60
2022/01/31 02:48:18;;;;;;;10.23;6.00;;;0.30;99.90;;;;;;5012766;28;20484;-60
2022/01/31 02:50:44;;;;;;;13.90;6.20;;;0.40;99.90;;;;;;5015192;28;20208;-60
2022/01/31 02:53:27;;;;;;;;;;;;;;;;;;;;;
2022/01/31 02:55:53;;;;;;;11.03;6.50;;;0.40;99.90;;;;;;5011098;28;20441;-61
2022/01/31 02:58:19;;;;;;;11.07;5.50;;;0.40;99.90;;;;;;5011687;28;20876;-61
2022/01/31 03:00:44;;;;;;;11.97;5.10;;;0.40;99.90;;;;;;5011812;28;20421;-61
2022/01/31 03:03:10;;;;;;;7.17;4.97;;;0.40;99.90;;;;;;5013278;28;20487;-60
2022/01/31 03:05:36;;;;;;;13.30;5.83;;;0.40;99.90;;;;;;5011120;28;20429;-60
2022/01/31 03:08:03;;;;;;;8.47;4.20;;;0.40;99.90;;;;;;5014275;28;20228;-60
2022/01/31 03:10:29;;;;;;;10.90;5.03;;;0.50;99.90;;;;;;5014587;28;20173;-61
2022/01/31 03:12:55;;;;;;;12.40;5.00;;;0.50;99.90;;;;;;5012365;28;20479;-61
2022/01/31 03:15:20;;;;;;;7.37;4.53;;;0.50;99.90;;;;;;5012509;28;20528;-60
2022/01/31 03:17:48;;;;;;;10.57;5.43;;;0.50;99.90;;;;;;5006377;28;20460;-61
2022/01/31 03:20:16;;;;;;;12.70;5.03;;;0.50;99.90;;;;;;5011189;28;20175;-60
2022/01/31 03:22:42;;;;;;;9.00;5.40;;;0.50;99.90;;;;;;5014636;28;20460;-61
2022/01/31 03:25:08;;;;;;;6.27;4.73;;;0.60;99.90;;;;;;5012737;28;20425;-60
2022/01/31 03:27:34;;;;;;;14.80;5.40;;;0.50;99.90;;;;;;5014779;28;20452;-60
2022/01/31 03:30:00;;;;;;;9.03;5.23;;;0.50;99.90;;;;;;5014160;28;20410;-61
2022/01/31 03:32:26;;;;;;;6.37;4.93;;;0.50;99.90;;;;;;5014549;28;21139;-60
2022/01/31 03:34:52;;;;;;;12.33;5.53;;;0.50;99.90;;;;;;5012576;28;20432;-61
2022/01/31 03:37:17;;;;;;;12.30;5.23;;;0.50;99.90;;;;;;5013171;28;20759;-61
2022/01/31 03:39:43;;;;;;;10.37;4.30;;;0.60;99.90;;;;;;5012175;28;20472;-60
2022/01/31 03:42:08;;;;;;;11.97;4.83;;;0.60;99.90;;;;;;5014505;28;20184;-61
2022/01/31 03:44:34;;;;;;;6.00;4.43;;;0.60;99.90;;;;;;5014391;28;20171;-61
2022/01/31 03:47:00;;;;;;;9.93;5.20;;;0.60;99.90;;;;;;5012334;28;20170;-60
2022/01/31 03:49:26;;;;;;;13.93;5.30;;;0.60;99.90;;;;;;5014353;28;20203;-60
2022/01/31 03:51:51;;;;;;;8.93;4.67;;;0.60;99.90;;;;;;5011958;28;20802;-61
2022/01/31 03:54:17;;;;;;;11.07;4.57;;;0.70;99.90;;;;;;5014977;28;20233;-61
2022/01/31 03:56:43;;;;;;;9.50;5.17;;;0.70;99.90;;;;;;5011054;28;20208;-60
2022/01/31 03:59:09;;;;;;;10.03;5.10;;;0.70;99.90;;;;;;5010450;28;20739;-61
2022/01/31 04:01:34;;;;;;;7.30;4.87;;;0.70;99.90;;;;;;5013529;28;20174;-61
2022/01/31 04:04:00;;;;;;;9.50;5.20;;;0.70;99.90;;;;;;5014221;28;20432;-61
2022/01/31 04:06:26;;;;;;;11.00;4.87;;;0.70;99.90;;;;;;5013999;28;20559;-61
2022/01/31 04:08:52;;;;;;;8.63;4.67;;;0.70;99.90;;;;;;5011220;28;20532;-61
2022/01/31 04:11:18;;;;;;;13.53;4.63;;;0.70;99.90;;;;;;5012630;28;21213;-61
2022/01/31 04:13:43;;;;;;;10.10;6.00;;;0.70;99.90;;;;;;5011422;28;20421;-61
2022/01/31 04:16:09;;;;;;;12.27;5.23;;;0.70;99.90;;;;;;5012886;28;20193;-60
2022/01/31 04:18:35;;;;;;;14.00;4.63;;;0.70;99.90;;;;;;5005354;28;20885;-62
2022/01/31 04:21:01;;;;;;;7.20;4.30;;;0.70;99.90;;;;;;5007251;28;20185;-61
2022/01/31 04:23:28;;;;;;;14.87;4.77;;;0.80;99.90;;;;;;5005215;28;20254;-61
2022/01/31 04:26:02;;;;;;;9.10;4.27;;;0.80;99.90;;;;;;5009497;28;20174;-61
2022/01/31 04:28:33;;;;;;;8.90;4.20;;;0.80;99.90;;;;;;5006352;28;20453;-61
2022/01/31 04:31:49;;;;;;;5.20;3.97;;;0.80;99.90;;;;;;5009598;28;20417;-61
2022/01/31 04:33:45;;;;;;;10.83;4.57;;;0.90;99.90;;;;;;5005850;28;20534;-61
2022/01/31 04:36:15;;;;;;;11.37;4.47;;;0.90;99.90;;;;;;5009603;28;20778;-61
2022/01/31 04:38:41;;;;;;;10.47;4.47;;;0.90;99.90;;;;;;5012289;28;21034;-62
2022/01/31 04:41:07;;;;;;;8.30;3.83;;;0.90;99.90;;;;;;5008996;28;20410;-60
2022/01/31 04:43:33;;;;;;;10.27;4.47;;;1.00;99.90;;;;;;4992013;28;20990;-61
2022/01/31 04:46:02;;;;;;;8.03;4.77;;;1.00;99.90;;;;;;5008201;28;20186;-60
2022/01/31 04:48:27;;;;;;;10.40;4.43;;;1.00;99.90;;;;;;5009499;28;20516;-60
2022/01/31 04:50:53;;;;;;;9.40;4.40;;;1.00;99.90;;;;;;5008233;28;20513;-61
2022/01/31 04:53:19;;;;;;;8.73;4.17;;;1.10;99.90;;;;;;5008359;28;20978;-61
2022/01/31 04:55:45;;;;;;;7.70;4.90;;;1.10;99.90;;;;;;5008516;28;20171;-59
2022/01/31 04:58:11;;;;;;;6.20;3.80;;;1.10;99.90;;;;;;5004803;28;20211;-60
2022/01/31 05:00:36;;;;;;;7.50;3.83;;;1.20;99.90;;;;;;5001488;28;20237;-61
2022/01/31 05:03:08;;;;;;;15.77;5.23;;;1.20;99.90;;;;;;5005281;28;20433;-61
2022/01/31 05:05:33;;;;;;;11.17;4.90;;;1.20;99.90;;;;;;5001833;28;20986;-61
2022/01/31 05:07:59;;;;;;;15.53;5.00;;;1.30;99.90;;;;;;5006809;28;20480;-61
2022/01/31 05:10:25;;;;;;;10.63;4.90;;;1.30;99.90;;;;;;5003566;28;20186;-61
2022/01/31 05:12:50;;;;;;;11.47;4.27;;;1.30;99.90;;;;;;5007036;28;20179;-61
2022/01/31 05:15:16;;;;;;;15.97;5.83;;;1.30;99.90;;;;;;4998804;28;20572;-61
2022/01/31 05:17:41;;;;;;;7.07;4.23;;;1.30;99.90;;;;;;5001831;28;20209;-62
2022/01/31 05:20:07;;;;;;;10.20;4.73;;;1.30;99.90;;;;;;5000926;28;20176;-61
2022/01/31 05:22:33;;;;;;;13.20;5.23;;;1.30;99.90;;;;;;5004326;28;20179;-59
2022/01/31 05:24:59;;;;;;;9.40;5.40;;;1.30;99.90;;;;;;5006245;28;20453;-60
2022/01/31 05:27:24;;;;;;;11.73;5.77;;;1.30;99.90;;;;;;5004754;28;20206;-60
2022/01/31 05:29:50;;;;;;;10.37;5.10;;;1.30;99.90;;;;;;5006140;28;20187;-60
2022/01/31 05:32:16;;;;;;;9.03;5.00;;;1.30;99.90;;;;;;5002638;28;20187;-60
2022/01/31 05:34:41;;;;;;;9.80;4.60;;;1.30;99.90;;;;;;5001234;28;20226;-61
2022/01/31 05:37:07;;;;;;;13.73;5.40;;;1.30;99.90;;;;;;5006132;28;20299;-61
2022/01/31 05:39:33;;;;;;;13.83;5.47;;;1.30;99.90;;;;;;5009274;28;20208;-61
2022/01/31 05:41:59;;;;;;;15.07;5.40;;;1.30;99.90;;;;;;5004945;28;20176;-61
2022/01/31 05:44:26;;;;;;;13.10;4.87;;;1.30;99.90;;;;;;5006667;28;20448;-61
2022/01/31 05:46:53;;;;;;;13.80;4.97;;;1.40;99.90;;;;;;5007929;28;20167;-60
2022/01/31 05:49:19;;;;;;;5.20;4.10;;;1.40;99.90;;;;;;5003327;28;20541;-61
2022/01/31 05:52:01;;;;;;;9.07;4.90;;;1.40;99.90;;;;;;5000894;28;20477;-61
2022/01/31 05:54:27;;;;;;;6.07;4.13;;;1.40;99.90;;;;;;5006032;28;20454;-62
2022/01/31 05:56:54;;;;;;;9.43;4.80;;;1.40;99.90;;;;;;5002361;28;20597;-62
2022/01/31 05:59:20;;;;;;;15.30;5.00;;;1.50;99.90;;;;;;5006714;28;20466;-60
2022/01/31 06:01:46;;;;;;;14.30;4.10;;;1.50;99.90;;;;;;5009532;28;20435;-60
2022/01/31 06:04:11;;;;;;;10.67;4.70;;;1.50;99.90;;;;;;5001110;28;20174;-61
2022/01/31 06:06:37;;;;;;;8.20;4.20;;;1.60;99.90;;;;;;5001531;28;20322;-62
2022/01/31 06:09:03;;;;;;;8.73;4.60;;;1.60;99.90;;;;;;5004158;28;20320;-61
2022/01/31 06:11:31;;;;;;;7.90;4.13;;;1.60;99.90;;;;;;5005234;28;20229;-61
2022/01/31 06:13:59;;;;;;;8.77;4.23;;;1.70;99.90;;;;;;5010996;28;20445;-61
2022/01/31 06:16:25;;;;;;;9.10;3.87;;;1.70;99.90;;;;;;5007070;28;20431;-61
2022/01/31 06:18:51;;;;;;;8.67;4.13;;;1.80;99.90;;;;;;5003805;28;20652;-60
2022/01/31 06:21:17;;;;;;;8.80;3.50;;;1.80;99.90;;;;;;5008376;28;20476;-61
2022/01/31 06:23:42;;;;;;;6.63;3.07;;;1.90;99.90;;;;;;5006148;28;20172;-61
2022/01/31 06:26:09;;;;;;;5.87;3.20;;;1.90;99.90;;;;;;5006827;28;20186;-62
2022/01/31 06:28:35;;;;;;;7.40;3.53;;;2.00;99.90;;;;;;5006936;28;20233;-65
2022/01/31 06:31:01;;;;;;;5.63;3.03;;;2.00;99.90;;;;;;5010389;28;20477;-61
2022/01/31 06:33:26;;;;;;;6.30;2.87;;;2.10;99.90;;;;;;5009097;28;20195;-62
2022/01/31 06:35:52;;;;;;;11.00;3.33;;;2.10;99.90;;;;;;5013049;28;20175;-61
2022/01/31 06:38:18;;;;;;;6.27;3.33;;;2.20;99.90;;;;;;5007313;28;20836;-60
2022/01/31 06:40:44;;;;;;;11.53;3.47;;;2.30;99.90;;;;;;5007512;28;20227;-60
2022/01/31 06:43:09;;;;;;;5.93;3.03;;;2.30;99.90;;;;;;5012144;28;20270;-60
2022/01/31 06:45:35;;;;;;;6.03;3.83;;;2.30;99.90;;;;;;5012333;28;20207;-61
2022/01/31 06:48:01;;;;;;;5.63;3.57;;;2.30;99.90;;;;;;5010215;28;20234;-60
2022/01/31 06:50:26;;;;;;;6.97;3.47;;;2.30;99.90;;;;;;5008626;28;20183;-61
2022/01/31 06:52:55;;;;;;;4.80;3.30;;;2.30;99.90;;;;;;5012027;28;20652;-62
2022/01/31 06:55:22;;;;;;;7.20;3.20;;;2.30;99.90;;;;;;5013178;28;20186;-60
2022/01/31 06:57:49;;;;;;;7.80;3.50;;;2.40;99.90;;;;;;5007051;28;20693;-60
2022/01/31 07:00:17;;;;;;;9.80;3.30;;;2.40;99.90;;;;;;5008664;28;21326;-62
2022/01/31 07:02:43;;;;;;;5.00;3.20;;;2.40;99.90;;;;;;5015311;28;20522;-61
2022/01/31 07:05:09;;;;;;;9.33;3.30;;;2.50;99.90;;;;;;5005021;28;21018;-61
2022/01/31 07:07:35;;;;;;;8.60;3.20;;;2.50;99.90;;;;;;5010211;28;20458;-61
2022/01/31 07:10:01;;;;;;;15.07;3.63;;;2.60;99.90;;;;;;5003467;28;20232;-61
2022/01/31 07:12:33;;;;;;;6.00;3.20;;;2.60;99.90;;;;;;5012397;28;20174;-60
2022/01/31 07:15:00;;;;;;;9.90;3.10;;;2.70;99.90;;;;;;5002589;28;20425;-61
2022/01/31 07:17:25;;;;;;;5.40;2.97;;;2.70;99.90;;;;;;5008654;28;20472;-61
2022/01/31 07:19:52;;;;;;;11.73;3.50;;;2.70;99.90;;;;;;5002899;28;20590;-62
2022/01/31 07:22:19;;;;;;;6.33;3.57;;;2.80;99.90;;;;;;5005274;28;20260;-61
2022/01/31 07:24:49;;;;;;;6.33;3.60;;;2.70;99.90;;;;;;5004358;28;20459;-60
2022/01/31 07:27:14;;;;;;;10.60;4.50;;;2.70;99.90;;;;;;5006529;28;20435;-61
2022/01/31 07:29:40;;;;;;;4.53;2.70;;;2.70;99.90;;;;;;5004153;28;20443;-62
2022/01/31 07:32:10;;;;;;;3.60;2.97;;;2.70;99.90;;;;;;5009970;28;20192;-61
2022/01/31 07:34:38;;;;;;;4.40;2.97;;;2.70;99.90;;;;;;5008703;28;20184;-61
2022/01/31 07:37:04;;;;;;;6.30;3.00;;;2.60;99.90;;;;;;5006177;28;20786;-62
2022/01/31 07:39:30;;;;;;;13.17;3.70;;;2.60;99.90;;;;;;5008124;28;20470;-60
2022/01/31 07:41:55;;;;;;;7.13;3.63;;;2.60;99.90;;;;;;5006554;28;20181;-62
2022/01/31 07:44:21;;;;;;;6.20;3.10;;;2.50;99.90;;;;;;5005442;28;20530;-60
2022/01/31 07:46:49;;;;;;;5.30;2.53;;;2.50;99.90;;;;;;5023660;28;20173;-62
2022/01/31 07:49:15;;;;;;;5.97;3.07;;;2.50;99.90;;;;;;5004419;28;20466;-61
2022/01/31 07:51:41;;;;;;;3.70;2.80;;;2.50;99.90;;;;;;5003225;28;20441;-61
2022/01/31 07:54:08;;;;;;;5.40;3.30;;;2.40;99.90;;;;;;5005886;28;20448;-60
2022/01/31 07:56:34;;;;;;;5.30;2.90;;;2.40;99.90;;;;;;5007969;28;20975;-62
2022/01/31 07:58:59;;;;;;;3.70;2.97;;;2.40;99.90;;;;;;5005955;28;20468;-61
2022/01/31 08:01:26;;;;;;;5.27;2.90;;;2.40;99.90;;;;;;5008163;28;20298;-61
2022/01/31 08:03:52;;;;;;;5.43;2.70;;;2.40;99.90;;;;;;5008968;28;20180;-60
2022/01/31 08:06:18;;;;;;;4.83;3.00;;;2.40;99.90;;;;;;5004194;28;20510;-60
2022/01/31 08:08:44;;;;;;;4.20;2.60;;;2.40;99.90;;;;;;5010021;28;20582;-60
2022/01/31 08:11:10;;;;;;;5.27;2.70;;;2.40;99.90;;;;;;5007304;28;20734;-61
2022/01/31 08:13:36;;;;;;;4.40;2.73;;;2.40;99.90;;;;;;5010885;28;20627;-60
2022/01/31 08:16:09;;;;;;;;;;;;;;;;;;;;;
2022/01/31 08:18:29;;;;;;;4.50;2.67;;;2.40;99.90;;;;;;5026634;23;20490;-58
2022/01/31 08:20:55;;;;;;;5.70;3.00;;;2.40;99.90;;;;;;5028294;28;20433;-58
2022/01/31 08:23:20;;;;;;;2.80;2.30;;;2.40;99.90;;;;;;5023351;28;20441;-58
2022/01/31 08:25:50;;;;;;;6.10;2.93;;;2.40;99.90;;;;;;5023790;28;20172;-57
2022/01/31 08:28:17;;;;;;;7.83;3.57;;;2.40;99.90;;;;;;5023681;28;20195;-58
2022/01/31 08:30:56;;;;;;;4.43;2.43;;;2.40;99.90;;;;;;5023541;28;20453;-56
2022/01/31 08:33:42;;;;;;;10.07;3.77;;;2.40;99.90;;;;;;5023856;28;21001;-56
2022/01/31 08:36:08;;;;;;;2.90;2.20;;;2.40;99.90;;;;;;5019619;28;20430;-59
2022/01/31 08:38:39;;;;;;;3.30;2.43;;;2.30;99.90;;;;;;5028132;28;20489;-57
2022/01/31 08:41:06;;;;;;;4.83;2.17;;;2.30;99.90;;;;;;5022772;28;20490;-61
2022/01/31 08:43:34;;;;;;;2.47;2.27;;;2.30;99.90;;;;;;5019063;28;20439;-56
2022/01/31 08:46:00;;;;;;;2.63;2.37;;;2.30;99.90;;;;;;5022421;28;20509;-59
2022/01/31 08:48:27;;;;;;;2.80;2.10;;;2.30;99.90;;;;;;5020569;28;20457;-58
2022/01/31 08:50:54;;;;;;;1.90;1.80;;;2.30;99.90;;;;;;5018496;28;20446;-58
2022/01/31 08:53:20;;;;;;;3.67;2.20;;;2.30;99.90;;;;;;5023630;28;20444;-59
2022/01/31 08:55:53;;;;;;;1.97;1.87;;;2.30;99.90;;;;;;5020575;28;20450;-56
2022/01/31 08:58:21;;;;;;;6.83;2.20;;;2.30;99.90;;;;;;5021978;28;20295;-56
2022/01/31 09:00:58;;;;;;;2.67;2.47;;;2.30;99.90;;;;;;5020431;28;20430;-58
2022/01/31 09:03:44;;;;;;;2.63;2.07;;;2.30;99.90;;;;;;5021933;28;20473;-56
2022/01/31 09:06:12;;;;;;;4.10;2.70;;;2.40;99.90;;;;;;5023775;28;20479;-56
2022/01/31 09:08:38;;;;;;;2.30;2.10;;;2.40;99.90;;;;;;5036430;28;20458;-60
2022/01/31 09:11:05;;;;;;;3.30;2.27;;;2.40;99.90;;;;;;5041280;28;20461;-56
2022/01/31 09:13:31;;;;;;;5.83;2.43;;;2.40;99.90;;;;;;5042902;28;20420;-57
2022/01/31 09:15:57;;;;;;;3.53;2.13;;;2.40;99.90;;;;;;5018379;28;22400;-58
2022/01/31 09:18:23;;;;;;;3.93;2.30;;;2.50;99.90;;;;;;5020318;28;20813;-58
2022/01/31 09:20:49;;;;;;;6.87;1.97;;;2.50;99.90;;;;;;5025356;28;20430;-59
2022/01/31 09:23:14;;;;;;;1.50;1.40;;;2.50;99.90;;;;;;5022105;28;21184;-56
2022/01/31 09:25:44;;;;;;;1.70;1.33;;;2.60;99.90;;;;;;5020604;28;20184;-58
2022/01/31 09:28:10;;;;;;;1.27;1.17;;;2.60;99.90;;;;;;5020404;28;20326;-58
2022/01/31 09:30:36;;;;;;;1.27;1.27;;;2.60;99.90;;;;;;5022294;28;20438;-58
2022/01/31 09:33:03;;;;;;;1.27;1.17;;;2.70;99.90;;;;;;5017670;28;20423;-58
2022/01/31 09:35:28;;;;;;;1.30;1.20;;;2.80;99.90;;;;;;5015780;28;20452;-57
2022/01/31 09:37:54;;;;;;;9.23;1.40;;;2.90;99.90;;;;;;5015852;28;20426;-55
2022/01/31 09:40:23;;;;;;;0.90;0.90;;;3.00;99.90;;;;;;5018144;28;20454;-59
2022/01/31 09:48:43;;;;;;;1.17;1.10;;;3.00;99.90;;;;;;5021333;28;20440;-58
2022/01/31 09:51:13;;;;;;;1.00;1.00;;;2.90;99.90;;;;;;5026183;28;20445;-56
2022/01/31 09:53:44;;;;;;;1.50;1.20;;;2.80;99.90;;;;;;5024375;28;20434;-58
2022/01/31 09:56:13;;;;;;;1.20;1.10;;;2.80;99.90;;;;;;5027919;28;20448;-57
2022/01/31 09:58:40;;;;;;;1.30;1.20;;;2.80;99.90;;;;;;5024758;28;20462;-55
2022/01/31 10:01:15;;;;;;;1.77;1.20;;;2.70;99.90;;;;;;5023770;28;20426;-56
2022/01/31 10:04:14;;;;;;;1.10;1.10;;;2.70;99.90;;;;;;5022773;28;20448;-57
2022/01/31 10:06:42;;;;;;;1.63;1.50;;;2.70;99.90;;;;;;5041741;28;20442;-59
2022/01/31 10:09:18;;;;;;;1.67;1.30;;;2.70;99.90;;;;;;5033702;28;20538;-55
2022/01/31 10:11:53;;;;;;;1.83;1.20;;;2.70;99.90;;;;;;5026353;28;20640;-55
2022/01/31 10:17:25;;;;;;;1.57;1.10;;;2.80;99.90;;;;;;5024815;28;20524;-58
2022/01/31 10:19:53;;;;;;;1.00;1.00;;;2.80;99.90;;;;;;5025731;28;20469;-56
2022/01/31 10:22:20;;;;;;;1.43;1.33;;;2.80;99.90;;;;;;5027877;28;20957;-56
2022/01/31 10:24:49;;;;;;;3.00;1.47;;;2.80;99.90;;;;;;5026678;28;20448;-58
2022/01/31 10:27:28;;;;;;;2.50;1.10;;;2.70;99.90;;;;;;5029077;28;20440;-57
2022/01/31 10:30:07;;;;;;;4.60;1.43;;;2.70;99.90;;;;;;5028471;28;20487;-57
2022/01/31 10:32:36;;;;;;;1.60;1.40;;;2.50;99.90;;;;;;5031809;28;20453;-57
2022/01/31 10:35:10;;;;;;;1.97;1.30;;;2.50;99.90;;;;;;5022338;28;20422;-57
2022/01/31 10:37:39;;;;;;;4.43;1.50;;;2.40;99.90;;;;;;5019456;28;20441;-55
2022/01/31 10:45:55;;;;;;;1.40;1.30;;;2.50;99.90;;;;;;5029340;28;20460;-57
2022/01/31 10:56:41;;;;;;;1.27;1.17;;;3.10;99.90;;;;;;5024682;28;20430;-58
2022/01/31 10:59:13;;;;;;;1.80;1.00;;;3.30;99.90;;;;;;5028380;28;20534;-58
2022/01/31 11:01:41;;;;;;;1.30;1.20;;;3.40;99.90;;;;;;5027733;28;20530;-56
2022/01/31 11:04:10;;;;;;;1.00;1.00;;;3.60;99.90;;;;;;5027202;28;20751;-58
2022/01/31 11:06:39;;;;;;;1.30;1.20;;;3.60;99.90;;;;;;5027596;28;20440;-58
2022/01/31 11:09:10;;;;;;;1.30;1.20;;;3.70;99.90;;;;;;5031131;28;20446;-58
2022/01/31 11:11:38;;;;;;;1.57;1.37;;;3.80;99.90;;;;;;5040234;28;20445;-57
2022/01/31 11:14:05;;;;;;;1.43;1.23;;;3.70;99.90;;;;;;5038789;28;20465;-57
2022/01/31 11:16:32;;;;;;;1.30;1.20;;;3.70;99.90;;;;;;5038269;28;20438;-57
2022/01/31 11:19:02;;;;;;;2.07;1.40;;;3.80;99.90;;;;;;5029688;28;20557;-57
2022/01/31 11:21:31;;;;;;;5.30;1.63;;;3.90;99.90;;;;;;5027619;28;20446;-57
2022/01/31 11:24:03;;;;;;;2.50;1.67;;;4.10;99.90;;;;;;5028969;28;20448;-58
2022/01/31 11:26:39;;;;;;;6.70;1.80;;;4.30;99.90;;;;;;5027531;28;20441;-56
2022/01/31 11:29:07;;;;;;;1.77;1.67;;;4.50;99.90;;;;;;5032071;28;20467;-63
2022/01/31 11:31:38;;;;;;;3.97;1.63;;;4.70;99.90;;;;;;5042633;28;20438;-55
2022/01/31 11:34:06;;;;;;;2.47;1.63;;;4.90;99.90;;;;;;5047508;28;20898;-56
2022/01/31 11:36:36;;;;;;;1.73;1.50;;;5.10;99.90;;;;;;5039000;28;20437;-55
2022/01/31 11:39:13;;;;;;;2.20;1.40;;;5.10;96.80;;;;;;5030070;28;20523;-55
2022/01/31 11:41:44;;;;;;;2.23;1.40;;;5.20;96.40;;;;;;5040786;28;20493;-56
2022/01/31 11:44:17;;;;;;;2.90;1.40;;;5.30;96.60;;;;;;5037000;28;20472;-55
2022/01/31 11:46:43;;;;;;;3.37;1.10;;;5.50;95.00;;;;;;5026635;28;20473;-55
2022/01/31 11:49:13;;;;;;;2.10;1.57;;;5.60;94.50;;;;;;5026457;28;20450;-55
2022/01/31 11:52:02;;;;;;;1.80;1.70;;;5.80;90.60;;;;;;5043746;28;20172;-56
2022/01/31 11:54:28;;;;;;;3.33;1.33;;;6.00;82.40;;;;;;5037968;28;20454;-55
2022/01/31 11:56:54;;;;;;;1.50;1.40;;;6.10;81.30;;;;;;5041919;28;20434;-55
2022/01/31 11:59:21;;;;;;;1.67;1.57;;;6.20;78.20;;;;;;5027726;28;20462;-57
2022/01/31 12:01:53;;;;;;;2.13;1.60;;;6.30;74.80;;;;;;5019021;28;20183;-56
2022/01/31 12:04:22;;;;;;;1.27;1.17;;;6.40;74.00;;;;;;5016104;28;20465;-55
2022/01/31 12:06:48;;;;;;;9.70;1.70;;;6.70;76.10;;;;;;5017324;28;20978;-57
2022/01/31 12:09:17;;;;;;;1.37;1.10;;;6.90;70.10;;;;;;5016699;28;20455;-59
2022/01/31 12:12:05;;;;;;;3.07;1.60;;;7.10;71.90;;;;;;5015987;28;20514;-54
2022/01/31 12:14:46;;;;;;;4.40;1.80;;;7.00;67.40;;;;;;5018519;28;20430;-57
2022/01/31 12:18:23;;;;;;;2.70;1.30;;;6.90;65.80;;;;;;5016136;28;20533;-57
2022/01/31 12:23:52;;;;;;;1.50;1.40;;;7.00;73.90;;;;;;5020933;28;20464;-57
2022/01/31 12:26:50;;;;;;;4.30;1.50;;;7.60;65.10;;;;;;5019160;28;20439;-57
2022/01/31 12:29:19;;;;;;;1.83;1.20;;;8.20;59.20;;;;;;5015171;28;20789;-56
2022/01/31 12:31:48;;;;;;;3.20;1.10;;;8.60;57.10;;;;;;5014288;28;20445;-58
2022/01/31 12:34:17;;;;;;;2.50;1.40;;;8.50;56.30;;;;;;5015904;28;20946;-55
2022/01/31 12:36:42;;;;;;;1.67;1.37;;;8.00;55.90;;;;;;5012576;28;20434;-56
2022/01/31 12:39:38;;;;;;;2.20;1.37;;;7.50;56.40;;;;;;5016371;28;20473;-57
2022/01/31 12:42:53;;;;;;;3.40;1.60;;;7.10;58.40;;;;;;5019179;28;20180;-57
2022/01/31 12:45:30;;;;;;;2.00;1.40;;;6.80;59.80;;;;;;5025370;28;20446;-55
2022/01/31 12:48:08;;;;;;;4.23;1.77;;;6.60;65.20;;;;;;5014188;28;20688;-54
2022/01/31 12:50:36;;;;;;;3.17;1.47;;;6.30;68.70;;;;;;5012482;28;20540;-56
2022/01/31 12:53:06;;;;;;;3.23;1.60;;;6.10;66.60;;;;;;5020411;28;20459;-55
2022/01/31 12:55:35;;;;;;;1.73;1.60;;;5.90;70.90;;;;;;5021914;28;20811;-56
2022/01/31 12:58:01;;;;;;;2.77;1.50;;;5.80;74.80;;;;;;5016085;28;20438;-57
2022/01/31 13:00:40;;;;;;;4.83;1.30;;;5.70;77.30;;;;;;5022837;28;20454;-55
2022/01/31 13:03:06;;;;;;;3.40;1.43;;;5.70;72.10;;;;;;5014435;28;21126;-57
2022/01/31 13:05:33;;;;;;;2.70;1.60;;;5.70;70.40;;;;;;5017349;28;20434;-54
2022/01/31 13:07:59;;;;;;;7.37;1.70;;;5.40;71.10;;;;;;5019098;28;20426;-55
2022/01/31 13:10:25;;;;;;;2.53;1.50;;;5.20;75.10;;;;;;5016420;28;20418;-55
2022/01/31 13:13:01;;;;;;;1.60;1.50;;;5.00;81.80;;;;;;5015603;28;20168;-57
2022/01/31 13:15:27;;;;;;;1.60;1.50;;;4.70;92.40;;;;;;5029319;28;20454;-56
2022/01/31 13:18:03;;;;;;;1.57;1.43;;;4.40;96.00;;;;;;5014651;28;21021;-56
2022/01/31 13:20:28;;;;;;;2.60;1.73;;;4.20;99.60;;;;;;5018029;28;20232;-55
2022/01/31 13:22:54;;;;;;;1.37;1.27;;;4.10;99.90;;;;;;5014938;28;20665;-56
2022/01/31 13:25:21;;;;;;;1.70;1.50;;;4.00;99.90;;;;;;5020203;28;20280;-58